Time;durP1;ratioP1;P1;durP2;ratioP2;P2;SDS_P1;SDS_P2;PMS_P1;PMS_P2;Temp;Humidity;BMP_temperature;BMP_pressure;BME280_temperature;BME280_humidity;BME280_pressure;Samples;Min_cycle;Max_cycle;Signal;HPM_P1;HPM_P2
2023/02/23 00:02:08;;;;;;;64.60;31.90;;;;;;;-0.70;71.74;97230.65;109022;1250;96066;-73
2023/02/23 00:04:36;;;;;;;65.90;33.90;;;;;;;-0.73;71.61;97230.09;109020;1249;103663;-73
2023/02/23 00:07:06;;;;;;;64.30;33.20;;;;;;;-0.75;71.57;97232.73;109037;1249;101996;-74
2023/02/23 00:09:35;;;;;;;59.10;32.10;;;;;;;-0.78;71.58;97230.86;108965;1250;99775;-73
2023/02/23 00:12:08;;;;;;;58.80;31.80;;;;;;;-0.82;71.54;97227.54;108986;1249;95624;-76
2023/02/23 00:14:37;;;;;;;63.70;34.10;;;;;;;-0.85;71.53;97228.21;108846;1251;96099;-74
2023/02/23 00:17:12;;;;;;;64.80;34.50;;;;;;;-0.88;71.65;97222.98;109044;1250;103499;-73
2023/02/23 00:19:42;;;;;;;66.30;35.30;;;;;;;-0.89;71.69;97223.81;109035;1249;101093;-76
2023/02/23 00:22:11;;;;;;;68.60;35.30;;;;;;;-0.90;71.57;97223.23;108998;1249;100113;-73
2023/02/23 00:24:41;;;;;;;67.20;33.70;;;;;;;-0.91;71.72;97224.69;108942;1249;95531;-72
2023/02/23 00:27:09;;;;;;;68.30;33.30;;;;;;;-0.92;71.87;97224.08;109074;1249;96505;-73
2023/02/23 00:29:39;;;;;;;67.80;31.60;;;;;;;-0.94;71.94;97223.58;109017;1250;103760;-74
2023/02/23 00:32:07;;;;;;;68.30;32.80;;;;;;;-0.96;71.92;97225.33;109044;1249;101184;-76
2023/02/23 00:34:37;;;;;;;65.50;33.10;;;;;;;-0.98;72.01;97224.33;108994;1250;99881;-76
2023/02/23 00:37:07;;;;;;;67.00;32.80;;;;;;;-0.98;72.02;97225.75;109012;1249;95607;-78
2023/02/23 00:39:35;;;;;;;69.70;35.30;;;;;;;-0.97;72.00;97226.58;109030;1250;96138;-76
2023/02/23 00:42:05;;;;;;;71.20;33.70;;;;;;;-0.97;72.04;97231.29;109034;1250;103600;-73
2023/02/23 00:44:34;;;;;;;68.30;35.30;;;;;;;-0.99;72.17;97228.64;109035;1250;101555;-73
2023/02/23 00:47:02;;;;;;;73.00;35.20;;;;;;;-1.02;72.16;97226.67;108714;1249;99901;-73
2023/02/23 00:49:30;;;;;;;63.50;33.70;;;;;;;-1.05;72.28;97220.73;109004;1249;95592;-73
2023/02/23 00:51:59;;;;;;;67.40;34.20;;;;;;;-1.07;72.27;97219.51;108746;1251;95749;-73
2023/02/23 00:54:27;;;;;;;67.90;34.30;;;;;;;-1.07;72.13;97224.64;108958;1249;103683;-78
2023/02/23 00:56:55;;;;;;;64.10;34.70;;;;;;;-1.08;72.05;97227.16;109012;1250;101345;-73
2023/02/23 00:59:23;;;;;;;68.70;36.00;;;;;;;-1.09;72.09;97227.56;108680;1251;99570;-77
2023/02/23 01:01:51;;;;;;;63.60;34.80;;;;;;;-1.08;72.12;97227.73;108908;1250;95570;-73
2023/02/23 01:04:19;;;;;;;65.50;34.90;;;;;;;-1.10;72.27;97228.20;109025;1249;96000;-73
2023/02/23 01:06:47;;;;;;;64.30;35.80;;;;;;;-1.13;72.28;97228.65;109038;1250;103587;-73
2023/02/23 01:09:26;;;;;;;66.10;34.80;;;;;;;-1.17;72.37;97230.11;108974;1250;101399;-73
2023/02/23 01:11:56;;;;;;;62.40;35.10;;;;;;;-1.18;72.29;97231.50;108983;1249;99994;-72
2023/02/23 01:14:25;;;;;;;63.70;34.30;;;;;;;-1.21;72.26;97233.12;108967;1249;95542;-73
2023/02/23 01:16:53;;;;;;;63.20;33.50;;;;;;;-1.21;72.34;97231.92;109037;1250;96380;-74
2023/02/23 01:19:22;;;;;;;71.10;35.50;;;;;;;-1.20;72.62;97227.23;109070;1249;101860;-77
2023/02/23 01:21:50;;;;;;;62.10;34.10;;;;;;;-1.21;72.52;97225.50;109010;1249;101361;-73
2023/02/23 01:24:18;;;;;;;64.90;33.90;;;;;;;-1.23;72.48;97221.65;108725;1249;99986;-77
2023/02/23 01:26:46;;;;;;;68.50;34.70;;;;;;;-1.24;72.45;97217.95;108993;1249;95531;-73
2023/02/23 01:29:17;;;;;;;73.10;34.90;;;;;;;-1.28;72.38;97214.55;108995;1250;96441;-73
2023/02/23 01:31:49;;;;;;;61.80;31.40;;;;;;;-1.30;72.51;97216.74;108731;1250;104370;-73
2023/02/23 01:34:20;;;;;;;67.30;32.00;;;;;;;-1.33;72.35;97213.50;109038;1250;101661;-73
2023/02/23 01:36:48;;;;;;;64.50;32.50;;;;;;;-1.36;72.39;97212.15;108991;1249;99904;-73
2023/02/23 01:39:19;;;;;;;60.60;31.20;;;;;;;-1.36;72.49;97215.05;109032;1249;95526;-74
2023/02/23 01:41:50;;;;;;;65.00;32.30;;;;;;;-1.37;72.55;97207.48;108683;1251;96067;-73
2023/02/23 01:44:18;;;;;;;65.80;31.50;;;;;;;-1.38;72.65;97211.84;108702;1251;103640;-74
2023/02/23 01:46:49;;;;;;;66.90;31.20;;;;;;;-1.42;72.59;97208.30;108939;1249;100478;-76
2023/02/23 01:49:20;;;;;;;;;;;;;;;-1.45;72.65;97207.89;108695;1251;100006;-73
2023/02/23 01:52:11;;;;;;;;;;;;;;;-1.48;72.75;97205.29;108971;1249;95540;-77
2023/02/23 01:54:49;;;;;;;;;;;;;;;-1.52;72.87;97204.08;108232;1259;96153;-73
2023/02/23 01:57:18;;;;;;;;;;;;;;;-1.55;72.92;97203.15;108319;1259;103552;-73
2023/02/23 01:59:47;;;;;;;;;;;;;;;-1.58;72.96;97198.30;108294;1259;101000;-73
2023/02/23 02:02:20;;;;;;;;;;;;;;;-1.60;73.00;97200.59;108245;1259;99692;-73
2023/02/23 02:04:50;;;;;;;;;;;;;;;-1.62;73.05;97200.33;108236;1259;95736;-77
2023/02/23 02:07:23;;;;;;;;;;;;;;;-1.64;73.08;97198.15;108271;1259;95758;-73
2023/02/23 02:10:38;;;;;;;;;;;;;;;-1.62;73.13;97195.70;108284;1259;103451;-76
2023/02/23 02:12:55;;;;;;;;;;;;;;;-1.62;73.18;97193.45;108287;1259;101086;-78
2023/02/23 02:15:24;;;;;;;;;;;;;;;-1.64;73.18;97193.23;108229;1259;100071;-74
2023/02/23 02:17:55;;;;;;;;;;;;;;;-1.64;73.21;97193.62;108250;1259;96133;-73
2023/02/23 02:20:31;;;;;;;;;;;;;;;-1.65;73.18;97190.88;108307;1259;96318;-73
2023/02/23 02:23:07;;;;;;;;;;;;;;;-1.68;73.23;97190.77;108293;1259;103587;-74
2023/02/23 02:25:43;;;;;;;;;;;;;;;-1.70;73.27;97190.06;108304;1259;101664;-73
2023/02/23 02:28:23;;;;;;;;;;;;;;;-1.71;73.48;97191.60;108136;1259;100126;-73
2023/02/23 02:31:04;;;;;;;;;;;;;;;-1.71;73.42;97191.06;108283;1259;95716;-73
2023/02/23 02:33:47;;;;;;;;;;;;;;;-1.72;73.39;97188.03;108985;1250;95586;-72
2023/02/23 02:36:25;;;;;;;;;;;;;;;-1.73;73.30;97189.70;109040;1249;101791;-73
2023/02/23 02:38:53;;;;;;;;;;;;;;;-1.74;73.43;97186.56;109046;1249;101217;-73
2023/02/23 02:41:27;;;;;;;;;;;;;;;-1.74;73.50;97184.10;109000;1250;100109;-73
2023/02/23 02:44:01;;;;;;;;;;;;;;;-1.73;73.52;97186.19;109037;1250;95599;-78
2023/02/23 02:46:38;;;;;;;;;;;;;;;-1.72;73.64;97182.68;109065;1253;96623;-73
2023/02/23 02:49:25;;;;;;;;;;;;;;;-1.71;73.56;97183.85;109054;1251;103095;-75
2023/02/23 02:51:57;;;;;;;;;;;;;;;-1.73;73.37;97185.46;108762;1250;100479;-73
2023/02/23 02:54:31;;;;;;;;;;;;;;;-1.75;73.29;97182.48;109029;1250;99882;-75
2023/02/23 02:57:03;;;;;;;;;;;;;;;-1.77;73.44;97182.05;109014;1251;95511;-73
2023/02/23 04:18:29;;;;;;;;;;;;;;;-2.30;73.89;97180.19;108521;1251;100006;-73
2023/02/23 04:20:58;;;;;;;;;;;;;;;-2.32;73.85;97177.96;108898;1250;95528;-73
2023/02/23 04:23:27;;;;;;;;;;;;;;;-2.33;73.83;97180.32;108934;1251;95677;-74
2023/02/23 04:25:55;;;;;;;;;;;;;;;-2.35;73.76;97180.54;108963;1251;103359;-73
2023/02/23 04:28:24;;;;;;;;;;;;;;;-2.37;73.86;97178.52;108936;1251;101088;-75
2023/02/23 04:30:52;;;;;;;;;;;;;;;-2.39;73.86;97178.88;108854;1251;99628;-74
2023/02/23 04:33:20;;;;;;;;;;;;;;;-2.41;73.89;97178.18;108907;1254;95904;-74
2023/02/23 04:35:48;;;;;;;;;;;;;;;-2.41;73.89;97176.65;108587;1252;95720;-73
2023/02/23 04:38:16;;;;;;;;;;;;;;;-2.42;74.01;97176.58;108933;1251;103778;-73
2023/02/23 04:40:44;;;;;;;;;;;;;;;-2.44;73.92;97174.29;108884;1251;101225;-74
2023/02/23 04:43:12;;;;;;;;;;;;;;;-2.47;73.91;97175.56;108872;1251;99625;-75
2023/02/23 04:45:41;;;;;;;;;;;;;;;-2.48;74.04;97176.23;108864;1251;95902;-74
2023/02/23 04:48:09;;;;;;;;;;;;;;;-2.49;73.92;97176.16;108942;1251;96952;-73
2023/02/23 04:50:37;;;;;;;;;;;;;;;-2.50;73.92;97178.16;108622;1254;103451;-77
2023/02/23 04:53:05;;;;;;;;;;;;;;;-2.49;73.91;97175.44;108595;1252;101479;-74
2023/02/23 04:55:33;;;;;;;;;;;;;;;-2.51;73.87;97176.27;108906;1251;99973;-78
2023/02/23 04:58:02;;;;;;;;;;;;;;;-2.51;74.05;97175.29;108879;1251;95582;-77
2023/02/23 05:00:30;;;;;;;;;;;;;;;-2.51;74.10;97175.77;108879;1251;95663;-74
2023/02/23 05:02:58;;;;;;;;;;;;;;;-2.51;74.20;97173.27;108857;1250;103224;-74
2023/02/23 05:05:26;;;;;;;;;;;;;;;-2.49;74.21;97173.16;108914;1250;101642;-73
2023/02/23 05:07:54;;;;;;;;;;;;;;;-2.50;74.31;97173.23;108897;1251;100241;-74
2023/02/23 05:10:22;;;;;;;;;;;;;;;-2.51;74.25;97173.15;108922;1251;95524;-76
2023/02/23 05:12:51;;;;;;;;;;;;;;;-2.50;74.30;97173.05;108649;1251;96500;-76
2023/02/23 05:15:19;;;;;;;;;;;;;;;-2.48;74.33;97171.86;109053;1250;103687;-73
2023/02/23 05:17:47;;;;;;;;;;;;;;;-2.49;74.25;97175.41;109004;1251;101313;-73
2023/02/23 05:20:15;;;;;;;;;;;;;;;-2.50;74.34;97174.80;109043;1250;107444;-73
2023/02/23 05:22:43;;;;;;;;;;;;;;;-2.50;74.36;97174.94;109034;1251;95504;-74
2023/02/23 05:25:11;;;;;;;;;;;;;;;-2.50;74.36;97178.35;109013;1251;96485;-76
2023/02/23 05:27:39;;;;;;;;;;;;;;;-2.50;74.35;97179.89;108975;1251;103577;-74
2023/02/23 05:30:08;;;;;;;;;;;;;;;-2.50;74.46;97176.20;109053;1251;101307;-74
2023/02/23 05:32:36;;;;;;;;;;;;;;;-2.49;74.54;97178.96;108694;1250;100282;-74
2023/02/23 05:35:04;;;;;;;;;;;;;;;-2.50;74.60;97179.73;108975;1250;95701;-77
2023/02/23 05:37:33;;;;;;;;;;;;;;;-2.49;74.61;97178.59;108809;1250;96487;-74
2023/02/23 05:40:01;;;;;;;;;;;;;;;-2.49;74.74;97178.80;108992;1250;104783;-73
2023/02/23 05:42:29;;;;;;;;;;;;;;;-2.51;74.86;97183.30;109024;1250;101864;-75
2023/02/23 05:44:57;;;;;;;;;;;;;;;-2.51;74.86;97181.95;109054;1250;100317;-73
2023/02/23 05:47:25;;;;;;;;;;;;;;;-2.51;74.82;97180.66;108995;1253;95544;-73
2023/02/23 05:49:53;;;;;;;;;;;;;;;-2.50;74.93;97179.86;109083;1251;96587;-73
2023/02/23 05:52:21;;;;;;;;;;;;;;;-2.50;74.88;97179.94;108699;1251;103387;-74
2023/02/23 05:54:49;;;;;;;;;;;;;;;-2.50;75.07;97178.52;109028;1249;101614;-74
2023/02/23 05:57:17;;;;;;;;;;;;;;;-2.47;75.17;97180.16;109051;1251;100429;-73
2023/02/23 05:59:45;;;;;;;;;;;;;;;-2.44;75.26;97182.92;109020;1250;95637;-77
2023/02/23 06:02:13;;;;;;;;;;;;;;;-2.42;75.06;97188.57;109031;1250;95810;-76
2023/02/23 06:04:41;;;;;;;;;;;;;;;-2.41;75.08;97190.72;109026;1250;103524;-74
2023/02/23 06:07:09;;;;;;;;;;;;;;;-2.42;75.22;97185.17;109027;1250;101437;-79
2023/02/23 06:09:37;;;;;;;;;;;;;;;-2.40;75.33;97188.51;109067;1251;99165;-74
2023/02/23 06:12:05;;;;;;;;;;;;;;;-2.36;75.29;97190.46;108999;1251;96552;-74
2023/02/23 06:14:34;;;;;;;;;;;;;;;-2.32;75.34;97188.73;109064;1250;95779;-76
2023/02/23 06:17:01;;;;;;;;;;;;;;;-2.30;75.28;97191.47;108739;1251;103769;-78
2023/02/23 06:19:30;;;;;;;;;;;;;;;-2.27;75.32;97193.84;108810;1250;101313;-74
2023/02/23 06:21:58;;;;;;;;;;;;;;;-2.25;75.30;97195.43;109084;1251;100123;-73
2023/02/23 06:24:26;;;;;;;;;;;;;;;-2.23;75.31;97193.13;109066;1251;95611;-74
2023/02/23 06:26:54;;;;;;;;;;;;;;;-2.19;75.32;97195.26;109048;1250;95731;-75
2023/02/23 06:29:22;;;;;;;;;;;;;;;-2.15;75.27;97199.15;109097;1250;103807;-76
2023/02/23 06:31:50;;;;;;;;;;;;;;;-2.11;75.41;97201.64;109090;1251;100310;-73
2023/02/23 06:34:18;;;;;;;;;;;;;;;-2.07;75.48;97202.31;109063;1250;99965;-77
2023/02/23 06:36:46;;;;;;;;;;;;;;;-2.04;75.54;97203.20;108993;1251;95526;-74
2023/02/23 06:39:17;;;;;;;;;;;;;;;-1.99;75.53;97204.20;109081;1251;95611;-73
2023/02/23 06:41:46;;;;;;;;;;;;;;;-1.94;75.71;97206.33;109077;1250;103230;-71
2023/02/23 06:44:14;;;;;;;;;;;;;;;-1.87;75.73;97207.16;108698;1250;112132;-73
2023/02/23 06:46:41;;;;;;;;;;;;;;;-1.82;75.91;97205.06;109017;1251;100144;-73
2023/02/23 06:49:11;;;;;;;;;;;;;;;-1.74;75.84;97208.28;109013;1251;95542;-73
2023/02/23 06:51:39;;;;;;;;;;;;;;;-1.67;75.92;97206.59;109060;1250;95884;-78
2023/02/23 06:54:07;;;;;;;;;;;;;;;-1.60;75.92;97207.55;109008;1250;103149;-74
2023/02/23 06:56:35;;;;;;;;;;;;;;;-1.55;76.05;97200.84;109034;1251;101442;-76
2023/02/23 06:59:03;;;;;;;;;;;;;;;-1.49;75.99;97198.02;109045;1249;100031;-73
2023/02/23 07:01:31;;;;;;;;;;;;;;;-1.44;76.12;97198.42;108989;1252;95682;-73
2023/02/23 07:04:00;;;;;;;;;;;;;;;-1.38;76.21;97199.31;109070;1250;96326;-75
2023/02/23 07:06:28;;;;;;;;;;;;;;;-1.33;76.24;97201.59;109029;1251;103242;-74
2023/02/23 07:08:57;;;;;;;;;;;;;;;-1.27;76.35;97198.93;109074;1250;100334;-75
2023/02/23 07:11:25;;;;;;;;;;;;;;;-1.20;76.33;97191.75;109026;1251;100364;-74
2023/02/23 07:13:54;;;;;;;;;;;;;;;-1.13;76.45;97192.36;109009;1249;95589;-74
2023/02/23 07:16:23;;;;;;;;;;;;;;;-1.06;76.48;97192.23;109039;1251;95590;-73
2023/02/23 07:18:51;;;;;;;;;;;;;;;-0.99;76.47;97191.09;109037;1251;103639;-74
2023/02/23 07:21:21;;;;;;;;;;;;;;;-0.94;76.50;97194.04;108993;1251;101062;-73
2023/02/23 07:23:49;;;;;;;;;;;;;;;-0.87;76.41;97194.63;109003;1251;99981;-73
2023/02/23 07:26:17;;;;;;;;;;;;;;;-0.80;76.53;97196.46;109023;1251;95571;-76
2023/02/23 07:28:45;;;;;;;;;;;;;;;-0.73;76.54;97198.55;109043;1251;96436;-75
2023/02/23 07:31:13;;;;;;;;;;;;;;;-0.64;76.59;97198.63;109060;1251;103462;-74
2023/02/23 07:33:41;;;;;;;;;;;;;;;-0.56;76.57;97196.61;109067;1253;101347;-76
2023/02/23 07:36:09;;;;;;;;;;;;;;;-0.48;76.68;97193.50;108666;1251;99846;-73
2023/02/23 07:38:37;;;;;;;;;;;;;;;-0.39;76.71;97193.16;108996;1251;95931;-75
2023/02/23 07:41:06;;;;;;;;;;;;;;;-0.29;76.58;97193.77;109039;1251;95628;-74
2023/02/23 07:43:34;;;;;;;;;;;;;;;-0.20;76.58;97193.47;109024;1251;103518;-74
2023/02/23 07:46:02;;;;;;;;;;;;;;;-0.11;76.49;97193.40;109001;1251;101492;-73
2023/02/23 07:48:30;;;;;;;;;;;;;;;-0.00;76.63;97192.17;108642;1251;99744;-75
2023/02/23 07:50:58;;;;;;;;;;;;;;;0.08;76.66;97189.91;108670;1249;95607;-75
2023/02/23 07:53:26;;;;;;;;;;;;;;;0.18;76.60;97187.19;108785;1250;96127;-73
2023/02/23 07:55:58;;;;;;;;;;;;;;;0.29;76.64;97185.59;109068;1251;103715;-74
2023/02/23 07:58:26;;;;;;;;;;;;;;;0.41;76.66;97186.30;108857;1251;213625;-74
2023/02/23 08:00:54;;;;;;;;;;;;;;;0.53;76.61;97183.16;108996;1251;99945;-74
2023/02/23 08:03:22;;;;;;;;;;;;;;;0.66;76.54;97181.67;109024;1253;95597;-73
2023/02/23 08:05:50;;;;;;;;;;;;;;;0.79;76.52;97182.23;108921;1256;95857;-74
2023/02/23 08:08:18;;;;;;;;;;;;;;;0.91;76.44;97178.49;109095;1250;103429;-76
2023/02/23 08:10:47;;;;;;;;;;;;;;;1.04;76.34;97180.59;109021;1249;101434;-72
2023/02/23 08:13:15;;;;;;;;;;;;;;;1.16;76.30;97183.58;108993;1250;100238;-74
2023/02/23 08:15:44;;;;;;;;;;;;;;;1.31;76.35;97185.26;109039;1250;95485;-74
2023/02/23 08:18:12;;;;;;;;;;;;;;;1.47;76.41;97184.09;109043;1251;95705;-77
2023/02/23 08:20:40;;;;;;;;;;;;;;;1.64;76.26;97183.45;109026;1251;103594;-74
2023/02/23 08:23:08;;;;;;;;;;;;;;;1.82;76.19;97179.59;109027;1251;101546;-74
2023/02/23 08:25:36;;;;;;;;;;;;;;;2.01;75.92;97179.57;109024;1251;99892;-74
2023/02/23 08:28:05;;;;;;;;;;;;;;;2.22;75.78;97183.36;108980;1251;95679;-76
2023/02/23 08:30:33;;;;;;;;;;;;;;;2.41;75.61;97179.67;109047;1251;96292;-76
2023/02/23 08:33:01;;;;;;;;;;;;;;;2.60;75.46;97176.92;109013;1250;103815;-74
2023/02/23 08:35:29;;;;;;;;;;;;;;;2.79;75.38;97172.81;109016;1251;101514;-74
2023/02/23 08:37:58;;;;;;;;;;;;;;;3.00;75.38;97167.88;109031;1251;99430;-76
2023/02/23 08:40:26;;;;;;;;;;;;;;;3.17;75.14;97171.36;109043;1251;95560;-74
2023/02/23 08:42:54;;;;;;;;;;;;;;;3.34;74.83;97171.85;109053;1251;95629;-77
2023/02/23 08:45:22;;;;;;;;;;;;;;;3.51;74.67;97171.39;108981;1251;103513;-76
2023/02/23 08:47:50;;;;;;;;;;;;;;;3.70;74.57;97169.57;108683;1258;101321;-74
2023/02/23 08:50:18;;;;;;;;;;;;;;;3.89;74.11;97167.38;109020;1250;99575;-74
2023/02/23 08:52:46;;;;;;;;;;;;;;;4.06;73.90;97168.65;108970;1251;95920;-75
2023/02/23 08:55:16;;;;;;;;;;;;;;;4.20;73.65;97167.31;109035;1250;95602;-76
2023/02/23 08:57:44;;;;;;;;;;;;;;;4.35;73.46;97163.77;108970;1251;103544;-73
2023/02/23 09:00:15;;;;;;;;;;;;;;;4.51;73.13;97165.29;108726;1250;100249;-74
2023/02/23 09:02:46;;;;;;;;;;;;;;;4.64;72.86;97165.85;108966;1250;99304;-74
2023/02/23 09:05:15;;;;;;;;;;;;;;;4.75;72.48;97165.29;108978;1249;95616;-74
2023/02/23 09:07:44;;;;;;;;;;;;;;;4.83;72.32;97159.80;108998;1251;95581;-77
2023/02/23 09:10:12;;;;;;;;;;;;;;;4.93;72.47;97158.52;108667;1250;103365;-74
2023/02/23 09:12:41;;;;;;;;;;;;;;;5.03;72.03;97158.90;109006;1251;101503;-74
2023/02/23 09:15:09;;;;;;;;;;;;;;;5.08;71.57;97160.26;108984;1250;109713;-73
2023/02/23 09:17:37;;;;;;;;;;;;;;;5.14;71.78;97160.66;108685;1251;95715;-76
2023/02/23 09:20:06;;;;;;;;;;;;;;;5.23;71.57;97161.54;109037;1251;95886;-75
2023/02/23 09:22:34;;;;;;;;;;;;;;;5.32;71.61;97159.48;109041;1251;103504;-73
2023/02/23 09:25:02;;;;;;;;;;;;;;;5.44;71.57;97157.23;108978;1251;101257;-73
2023/02/23 09:27:30;;;;;;;;;;;;;;;5.53;71.40;97153.59;108958;1251;99939;-74
2023/02/23 09:29:58;;;;;;;;;;;;;;;5.61;71.14;97155.52;108948;1251;95579;-74
2023/02/23 09:32:26;;;;;;;;;;;;;;;5.70;71.02;97152.75;108692;1250;96586;-74
2023/02/23 09:34:54;;;;;;;;;;;;;;;5.84;70.95;97150.73;108738;1251;103762;-76
2023/02/23 09:37:23;;;;;;;;;;;;;;;5.96;70.69;97150.63;109068;1250;101373;-73
2023/02/23 09:39:51;;;;;;;;;;;;;;;6.08;70.58;97148.33;109016;1251;99027;-74
2023/02/23 09:42:19;;;;;;;;;;;;;;;6.24;70.65;97148.33;108987;1249;95697;-74
2023/02/23 09:45:06;;;;;;;;;;;;;;;6.39;70.67;97145.81;109036;1250;95632;-73
2023/02/23 09:47:41;;;;;;;;;;;;;;;6.55;70.59;97142.90;108765;1250;103531;-74
2023/02/23 09:50:15;;;;;;;;;;;;;;;6.71;70.20;97140.16;109037;1251;100555;-74
2023/02/23 09:52:45;;;;;;;;;;;;;;;6.85;69.69;97139.65;109015;1249;100008;-74
2023/02/23 09:55:14;;;;;;;;;;;;;;;6.98;69.55;97135.09;108648;1251;95608;-74
2023/02/23 09:57:48;;;;;;;;;;;;;;;7.14;69.54;97133.39;108981;1251;95658;-73
2023/02/23 10:00:33;;;;;;;;;;;;;;;7.32;69.70;97134.16;109078;1249;103090;-74
2023/02/23 10:03:03;;;;;;;;;;;;;;;7.47;69.03;97134.78;108882;1251;101930;-75
2023/02/23 10:05:36;;;;;;;;;;;;;;;7.60;68.73;97133.33;108978;1251;99051;-76
2023/02/23 10:08:08;;;;;;;;;;;;;;;7.74;68.30;97136.23;108945;1250;95540;-74
2023/02/23 10:10:40;;;;;;;;;;;;;;;7.91;68.45;97130.70;109021;1251;95587;-74
2023/02/23 10:13:15;;;;;;;;;;;;;;;8.12;67.87;97131.54;108681;1251;102679;-71
2023/02/23 10:15:55;;;;;;;;;;;;;;;8.31;67.14;97128.30;108568;1252;102417;-74
2023/02/23 10:18:38;;;;;;;;;;;;;;;8.51;66.89;97126.73;108828;1251;98963;-73
2023/02/23 10:21:12;;;;;;;;;;;;;;;8.73;66.78;97122.98;108445;1254;95627;-73
2023/02/23 10:23:44;;;;;;;;;;;;;;;8.92;66.27;97120.88;108895;1251;95648;-73
2023/02/23 10:26:16;;;;;;;;;;;;;;;9.03;65.82;97119.25;108819;1251;103458;-73
2023/02/23 10:28:45;;;;;;;;;;;;;;;9.18;65.96;97117.91;108869;1251;101331;-74
2023/02/23 10:31:19;;;;;;;;;;;;;;;9.40;65.81;97118.86;108789;1251;99957;-74
2023/02/23 10:33:48;;;;;;;;;;;;;;;9.62;65.30;97118.31;108818;1251;95604;-73
2023/02/23 10:36:19;;;;;;;;;;;;;;;9.85;64.98;97117.21;108852;1251;95652;-73
2023/02/23 10:38:47;;;;;;;;;;;;;;;9.97;64.33;97114.23;108870;1251;103715;-73
2023/02/23 10:41:16;;;;;;;;;;;;;;;10.14;64.22;97109.39;108873;1251;101497;-74
2023/02/23 10:43:44;;;;;;;;;;;;;;;10.25;63.86;97106.32;108795;1251;100018;-74
2023/02/23 10:46:19;;;;;;;;;;;;;;;10.33;63.50;97102.00;108556;1251;95818;-73
2023/02/23 10:48:49;;;;;;;;;;;;;;;10.44;63.04;97100.64;108608;1251;95635;-73
2023/02/23 10:51:20;;;;;;;;;;;;;;;10.60;63.31;97096.80;108658;1250;102117;-77
2023/02/23 10:53:48;;;;;;;;;;;;;;;10.80;63.34;97093.23;108566;1254;102447;-75
2023/02/23 10:56:18;;;;;;;;;;;;;;;11.00;62.74;97087.95;108750;1252;99149;-73
2023/02/23 10:58:48;;;;;;;;;;;;;;;11.13;61.95;97090.10;108812;1253;95549;-74
2023/02/23 11:01:37;;;;;;;;;;;;;;;11.22;61.72;97086.65;108782;1251;95784;-76
2023/02/23 11:04:21;;;;;;;;;;;;;;;11.44;61.71;97082.36;108815;1251;103650;-73
2023/02/23 11:06:51;;;;;;;;;;;;;;;11.66;61.07;97080.69;108618;1251;101191;-73
2023/02/23 11:09:26;;;;;;;;;;;;;;;11.82;60.61;97079.61;108849;1251;100134;-73
2023/02/23 11:12:03;;;;;;;;;;;;;;;11.99;60.45;97075.02;108936;1251;95575;-77
2023/02/23 11:14:32;;;;;;;;;;;;;;;12.17;60.01;97067.83;108741;1250;96554;-74
2023/02/23 11:17:00;;;;;;;;;;;;;;;12.33;59.61;97065.98;109071;1249;103647;-73
2023/02/23 11:19:32;;;;;;;;;;;;;;;12.46;59.16;97063.45;108701;1250;100373;-75
2023/02/23 11:22:01;;;;;;;;;;;;;;;12.58;58.92;97063.92;108983;1250;100001;-73
2023/02/23 11:24:34;;;;;;;;;;;;;;;12.73;58.57;97054.82;108991;1250;95599;-75
2023/02/23 11:27:08;;;;;;;;;;;;;;;12.85;58.07;97050.50;109092;1250;95611;-74
2023/02/23 11:29:38;;;;;;;;;;;;;;;12.90;57.74;97047.70;109030;1250;103685;-73
2023/02/23 11:32:15;;;;;;;;;;;;;;;13.04;57.88;97049.83;109032;1250;101158;-74
2023/02/23 11:34:44;;;;;;;;;;;;;;;13.15;57.96;97046.57;108989;1249;99910;-74
2023/02/23 11:37:15;;;;;;;;;;;;;;;13.25;57.49;97045.10;109014;1250;95840;-74
2023/02/23 11:40:11;;;;;;;;;;;;;;;13.41;57.28;97039.89;109079;1250;95696;-73
2023/02/23 11:42:52;;;;;;;;;;;;;;;13.60;56.76;97036.13;108260;1259;103783;-75
2023/02/23 11:45:21;;;;;;;;;;;;;;;13.77;56.38;97037.15;108124;1259;101117;-73
2023/02/23 11:47:52;;;;;;;;;;;;;;;13.84;55.85;97034.34;108272;1259;99606;-74
2023/02/23 11:50:26;;;;;;;;;;;;;;;13.87;55.68;97030.45;108278;1259;95724;-74
2023/02/23 11:53:12;;;;;;;;;;;;;;;13.92;54.83;97029.23;108282;1259;95776;-75
2023/02/23 11:55:47;;;;;;;;;;;;;;;13.92;54.80;97025.73;108159;1262;102877;-74
2023/02/23 11:58:27;;;;;;;;;;;;;;;13.96;54.71;97023.26;108182;1261;101462;-74
2023/02/23 12:00:57;;;;;;;;;;;;;;;13.99;54.66;97020.66;108098;1261;100043;-74
2023/02/23 12:03:27;;;;;;;;;;;;;;;14.06;54.31;97015.52;108141;1261;96073;-76
2023/02/23 12:05:58;;;;;;;;;;;;;;;14.13;54.47;97008.75;108007;1262;95800;-74
2023/02/23 12:08:40;;;;;;;;;;;;;;;14.19;54.25;97007.27;108148;1262;103441;-74
2023/02/23 12:11:12;;;;;;;;;;;;;;;14.19;54.00;97003.77;108135;1262;101305;-74
2023/02/23 12:13:44;;;;;;;;;;;;;;;14.19;54.06;97003.59;108148;1259;99955;-76
2023/02/23 12:16:21;;;;;;;;;;;;;;;14.24;54.17;97005.41;108169;1259;95618;-76
2023/02/23 12:18:55;;;;;;;;;;;;;;;14.38;53.83;97003.67;108348;1259;95945;-73
2023/02/23 12:21:25;;;;;;;;;;;;;;;14.46;53.63;97001.02;108905;1255;103469;-74
2023/02/23 12:23:58;;;;;;;;;;;;;;;14.48;53.14;96998.39;108940;1251;101229;-74
2023/02/23 12:26:27;;;;;;;;;;;;;;;14.48;53.32;96995.78;108870;1251;99614;-74
2023/02/23 12:28:58;;;;;;;;;;;;;;;14.46;53.09;96994.52;108857;1251;95861;-78
2023/02/23 12:31:28;;;;;;;;;;;;;;;14.49;52.96;96988.63;108908;1251;95720;-76
2023/02/23 12:34:02;;;;;;;;;;;;;;;14.56;52.94;96983.41;108930;1251;103496;-74
2023/02/23 12:36:39;;;;;;;;;;;;;;;14.64;52.94;96988.21;108911;1251;109939;-74
2023/02/23 12:39:23;;;;;;;;;;;;;;;14.71;53.06;96987.02;108689;1251;99483;-74
2023/02/23 12:42:15;;;;;;;;;;;;;;;14.78;52.62;96986.30;108867;1251;95569;-74
2023/02/23 12:45:04;;;;;;;;;;;;;;;14.81;52.74;96983.61;108925;1251;95750;-74
2023/02/23 12:47:32;;;;;;;;;;;;;;;14.84;52.70;96984.84;108919;1251;103461;-77
2023/02/23 12:50:19;;;;;;;;;;;;;;;14.86;52.48;96981.23;108891;1251;100975;-76
2023/02/23 12:52:51;;;;;;;;;;;;;;;14.87;52.41;96977.46;108902;1251;99841;-74
2023/02/23 12:55:45;;;;;;;;;;;;;;;14.86;52.22;96977.29;108842;1251;95817;-74
2023/02/23 12:58:17;;;;;;;;;;;;;;;14.80;52.03;96967.99;108313;1257;95756;-74
2023/02/23 13:00:50;;;;;;;;;;;;;;;14.74;52.22;96966.92;108330;1258;102360;-78
2023/02/23 13:03:18;;;;;;;;;;;;;;;14.65;52.20;96968.24;108233;1259;100313;-74
2023/02/23 13:06:20;;;;;;;;;;;;;;;14.59;51.94;96961.19;108336;1259;100028;-74
2023/02/23 13:09:06;;;;;;;;;;;;;;;14.47;51.66;96958.61;108334;1258;95638;-75
2023/02/23 13:11:47;;;;;;;;;;;;;;;14.22;51.36;96955.13;108374;1257;96507;-75
2023/02/23 13:14:28;;;;;;;;;;;;;;;14.07;51.88;96956.22;108364;1256;103417;-74
2023/02/23 13:17:14;;;;;;;;;;;;;;;14.01;51.90;96951.33;108397;1257;101107;-77
2023/02/23 13:19:48;;;;;;;;;;;;;;;13.97;52.25;96948.93;108284;1258;99927;-76
2023/02/23 13:22:25;;;;;;;;;;;;;;;13.98;52.30;96950.14;108295;1256;95615;-77
2023/02/23 13:24:55;;;;;;;;;;;;;;;13.98;52.25;96948.20;108354;1256;95836;-76
2023/02/23 13:27:27;;;;;;;;;;;;;;;13.99;52.00;96946.86;108382;1257;103119;-77
2023/02/23 13:29:58;;;;;;;;;;;;;;;14.01;52.32;96945.52;108349;1257;101294;-76
2023/02/23 13:32:31;;;;;;;;;;;;;;;14.00;52.07;96943.48;108245;1259;99822;-74
2023/02/23 13:35:00;;;;;;;;;;;;;;;13.94;51.29;96938.66;108160;1254;95747;-77
2023/02/23 13:37:33;;;;;;;;;;;;;;;13.82;51.74;96937.13;108709;1254;95674;-74
2023/02/23 13:40:07;;;;;;;;;;;;;;;13.85;52.28;96938.01;108682;1254;103369;-75
2023/02/23 13:42:57;;;;;;;;;;;;;;;13.94;52.19;96935.23;108663;1254;101268;-74
2023/02/23 13:45:40;;;;;;;;;;;;;;;14.06;51.97;96931.70;108672;1254;99961;-77
2023/02/23 13:48:19;;;;;;;;;;;;;;;14.08;51.89;96927.35;108635;1254;95967;-76
2023/02/23 13:50:52;;;;;;;;;;;;;;;14.16;51.72;96923.48;108679;1254;95713;-74
2023/02/23 13:53:45;;;;;;;;;;;;;;;14.29;51.99;96921.46;108733;1254;103771;-77
2023/02/23 13:56:18;;;;;;;;;;;;;;;14.41;51.81;96919.84;108272;1259;101057;-76
2023/02/23 13:58:48;;;;;;;;;;;;;;;14.45;51.89;96916.11;108173;1260;99851;-74
2023/02/23 14:01:37;;;;;;;;;;;;;;;14.45;51.89;96911.55;108193;1260;95604;-77